Terminal Aerodrome Forecast
Issued by NWS Corpus Christi, TX

Home | Current Version | Previous Version | Text Only | Print | Product List | Glossary On
Versions: 1 2 3 4 5 6 7 8 9 10 11 12 13 14
717
FTUS44 KCRP 201130
TAFCRP
TAF
KCRP 201130Z 2012/2112 16010KT P6SM SCT015
     FM201500 16014G20KT P6SM SCT025
     FM201900 14015G22KT P6SM SCT035
     FM210100 15012KT P6SM SCT025
     FM210700 14006KT P6SM SCT015=

USA.gov is the U.S. government's official web portal to all federal, state and local government web resources and services.